sensor_id;sensor_type;location;lat;lon;timestamp;temperature;humidity
41944;DHT22;27636;52.610;13.244;2023-08-06T00:02:05;16.30;99.90
41944;DHT22;27636;52.610;13.244;2023-08-06T00:07:10;16.30;99.90
41944;DHT22;27636;52.610;13.244;2023-08-06T00:12:14;16.30;99.90
41944;DHT22;27636;52.610;13.244;2023-08-06T00:17:18;16.40;99.90
41944;DHT22;27636;52.610;13.244;2023-08-06T00:22:23;16.30;99.90
41944;DHT22;27636;52.610;13.244;2023-08-06T00:27:27;16.20;99.90
41944;DHT22;27636;52.610;13.244;2023-08-06T00:32:31;16.20;99.90
41944;DHT22;27636;52.610;13.244;2023-08-06T00:37:36;16.30;99.90
41944;DHT22;27636;52.610;13.244;2023-08-06T00:42:39;16.30;99.90
41944;DHT22;27636;52.610;13.244;2023-08-06T00:47:43;16.20;99.90
41944;DHT22;27636;52.610;13.244;2023-08-06T00:52:49;16.10;99.90
41944;DHT22;27636;52.610;13.244;2023-08-06T00:57:53;16.20;99.90
41944;DHT22;27636;52.610;13.244;2023-08-06T01:03:00;16.20;99.90
41944;DHT22;27636;52.610;13.244;2023-08-06T01:08:15;16.10;99.90
41944;DHT22;27636;52.610;13.244;2023-08-06T01:13:25;16.10;99.90
41944;DHT22;27636;52.610;13.244;2023-08-06T01:18:32;16.10;99.90
41944;DHT22;27636;52.610;13.244;2023-08-06T01:23:38;16.10;99.90
41944;DHT22;27636;52.610;13.244;2023-08-06T01:28:44;16.10;99.90
41944;DHT22;27636;52.610;13.244;2023-08-06T01:33:53;16.10;99.90
41944;DHT22;27636;52.610;13.244;2023-08-06T01:38:59;16.00;99.90
41944;DHT22;27636;52.610;13.244;2023-08-06T01:44:03;16.10;99.90
41944;DHT22;27636;52.610;13.244;2023-08-06T01:49:07;16.10;99.90
41944;DHT22;27636;52.610;13.244;2023-08-06T01:54:12;16.20;99.90
41944;DHT22;27636;52.610;13.244;2023-08-06T01:59:16;16.20;99.90
41944;DHT22;27636;52.610;13.244;2023-08-06T02:04:20;16.20;99.90
41944;DHT22;27636;52.610;13.244;2023-08-06T02:09:25;16.30;99.90
41944;DHT22;27636;52.610;13.244;2023-08-06T02:14:29;16.30;99.90
41944;DHT22;27636;52.610;13.244;2023-08-06T02:19:32;16.30;99.90
41944;DHT22;27636;52.610;13.244;2023-08-06T02:24:37;16.40;99.90
41944;DHT22;27636;52.610;13.244;2023-08-06T02:29:41;16.30;99.90
41944;DHT22;27636;52.610;13.244;2023-08-06T02:34:45;16.40;99.90
41944;DHT22;27636;52.610;13.244;2023-08-06T02:39:50;16.30;99.90
41944;DHT22;27636;52.610;13.244;2023-08-06T02:44:54;16.30;99.90
41944;DHT22;27636;52.610;13.244;2023-08-06T02:50:00;16.40;99.90
41944;DHT22;27636;52.610;13.244;2023-08-06T02:55:07;16.40;99.90
41944;DHT22;27636;52.610;13.244;2023-08-06T03:00:14;16.40;99.90
41944;DHT22;27636;52.610;13.244;2023-08-06T03:05:19;16.30;99.90
41944;DHT22;27636;52.610;13.244;2023-08-06T03:10:25;16.30;99.90
41944;DHT22;27636;52.610;13.244;2023-08-06T03:15:31;16.20;99.90
41944;DHT22;27636;52.610;13.244;2023-08-06T03:20:35;16.10;99.90
41944;DHT22;27636;52.610;13.244;2023-08-06T03:25:40;16.00;99.90
41944;DHT22;27636;52.610;13.244;2023-08-06T03:30:44;16.00;99.90
41944;DHT22;27636;52.610;13.244;2023-08-06T03:35:48;16.10;99.90
41944;DHT22;27636;52.610;13.244;2023-08-06T03:40:55;16.10;99.90
41944;DHT22;27636;52.610;13.244;2023-08-06T03:45:59;16.10;99.90
41944;DHT22;27636;52.610;13.244;2023-08-06T03:51:03;16.10;99.90
41944;DHT22;27636;52.610;13.244;2023-08-06T03:56:09;16.10;99.90
41944;DHT22;27636;52.610;13.244;2023-08-06T04:01:13;16.10;99.90
41944;DHT22;27636;52.610;13.244;2023-08-06T04:06:20;16.10;99.90
41944;DHT22;27636;52.610;13.244;2023-08-06T04:11:24;16.20;99.90
41944;DHT22;27636;52.610;13.244;2023-08-06T04:16:28;16.20;99.90
41944;DHT22;27636;52.610;13.244;2023-08-06T04:21:32;16.30;99.90
41944;DHT22;27636;52.610;13.244;2023-08-06T04:26:37;16.20;99.90
41944;DHT22;27636;52.610;13.244;2023-08-06T04:31:41;16.10;99.90
41944;DHT22;27636;52.610;13.244;2023-08-06T04:36:45;16.10;99.90
41944;DHT22;27636;52.610;13.244;2023-08-06T04:41:50;16.20;99.90
41944;DHT22;27636;52.610;13.244;2023-08-06T04:46:55;16.20;99.90
41944;DHT22;27636;52.610;13.244;2023-08-06T04:51:59;16.30;99.90
41944;DHT22;27636;52.610;13.244;2023-08-06T04:57:04;16.40;99.90
41944;DHT22;27636;52.610;13.244;2023-08-06T05:02:08;16.40;99.90
41944;DHT22;27636;52.610;13.244;2023-08-06T05:07:12;16.40;99.90
41944;DHT22;27636;52.610;13.244;2023-08-06T05:12:17;16.40;99.90
41944;DHT22;27636;52.610;13.244;2023-08-06T05:17:20;16.50;99.90
41944;DHT22;27636;52.610;13.244;2023-08-06T05:22:26;16.60;99.90
41944;DHT22;27636;52.610;13.244;2023-08-06T05:27:31;16.60;99.90
41944;DHT22;27636;52.610;13.244;2023-08-06T05:32:34;16.50;99.90
41944;DHT22;27636;52.610;13.244;2023-08-06T05:37:38;16.40;99.90
41944;DHT22;27636;52.610;13.244;2023-08-06T05:42:43;16.60;99.90
41944;DHT22;27636;52.610;13.244;2023-08-06T05:47:48;16.60;99.90
41944;DHT22;27636;52.610;13.244;2023-08-06T05:52:51;16.40;99.90
41944;DHT22;27636;52.610;13.244;2023-08-06T05:57:56;16.60;99.90
41944;DHT22;27636;52.610;13.244;2023-08-06T06:03:00;16.60;99.90
41944;DHT22;27636;52.610;13.244;2023-08-06T06:08:05;16.50;99.90
41944;DHT22;27636;52.610;13.244;2023-08-06T06:13:10;16.50;99.90
41944;DHT22;27636;52.610;13.244;2023-08-06T06:18:13;16.70;99.90
41944;DHT22;27636;52.610;13.244;2023-08-06T06:23:17;16.70;99.90
41944;DHT22;27636;52.610;13.244;2023-08-06T06:28:23;16.90;99.90
41944;DHT22;27636;52.610;13.244;2023-08-06T06:33:26;17.00;99.90
41944;DHT22;27636;52.610;13.244;2023-08-06T06:38:29;17.20;99.90
41944;DHT22;27636;52.610;13.244;2023-08-06T06:43:34;17.20;99.90
41944;DHT22;27636;52.610;13.244;2023-08-06T06:48:38;17.10;99.90
41944;DHT22;27636;52.610;13.244;2023-08-06T06:53:42;17.40;99.90
41944;DHT22;27636;52.610;13.244;2023-08-06T06:58:46;17.50;99.90
41944;DHT22;27636;52.610;13.244;2023-08-06T07:03:50;17.70;99.90
41944;DHT22;27636;52.610;13.244;2023-08-06T07:08:55;17.70;99.90
41944;DHT22;27636;52.610;13.244;2023-08-06T07:14:00;17.70;99.90
41944;DHT22;27636;52.610;13.244;2023-08-06T07:19:03;17.70;99.90
41944;DHT22;27636;52.610;13.244;2023-08-06T07:24:08;17.80;99.90
41944;DHT22;27636;52.610;13.244;2023-08-06T07:29:13;17.80;99.90
41944;DHT22;27636;52.610;13.244;2023-08-06T07:34:17;17.90;99.90
41944;DHT22;27636;52.610;13.244;2023-08-06T07:39:21;18.00;99.90
41944;DHT22;27636;52.610;13.244;2023-08-06T07:44:27;18.10;99.90
41944;DHT22;27636;52.610;13.244;2023-08-06T07:49:31;18.40;99.90
41944;DHT22;27636;52.610;13.244;2023-08-06T07:54:35;18.50;99.90
41944;DHT22;27636;52.610;13.244;2023-08-06T07:59:39;18.60;99.90
41944;DHT22;27636;52.610;13.244;2023-08-06T08:04:43;18.70;99.90
41944;DHT22;27636;52.610;13.244;2023-08-06T08:09:46;18.70;99.90
41944;DHT22;27636;52.610;13.244;2023-08-06T08:14:52;18.50;99.90
41944;DHT22;27636;52.610;13.244;2023-08-06T08:19:56;18.40;99.90
41944;DHT22;27636;52.610;13.244;2023-08-06T08:24:59;18.00;99.90
41944;DHT22;27636;52.610;13.244;2023-08-06T08:30:05;18.10;99.90
41944;DHT22;27636;52.610;13.244;2023-08-06T08:35:09;18.40;99.90
41944;DHT22;27636;52.610;13.244;2023-08-06T08:40:15;18.70;99.90
41944;DHT22;27636;52.610;13.244;2023-08-06T08:45:22;18.90;99.90
41944;DHT22;27636;52.610;13.244;2023-08-06T08:50:29;19.20;99.90
41944;DHT22;27636;52.610;13.244;2023-08-06T08:55:33;19.40;99.90
41944;DHT22;27636;52.610;13.244;2023-08-06T09:00:38;19.50;99.90
41944;DHT22;27636;52.610;13.244;2023-08-06T09:05:44;19.40;99.90
41944;DHT22;27636;52.610;13.244;2023-08-06T09:10:49;19.50;99.90
41944;DHT22;27636;52.610;13.244;2023-08-06T09:15:54;19.40;99.90
41944;DHT22;27636;52.610;13.244;2023-08-06T09:20:58;19.60;99.90
41944;DHT22;27636;52.610;13.244;2023-08-06T09:26:02;19.60;99.90
41944;DHT22;27636;52.610;13.244;2023-08-06T09:31:08;19.20;99.90
41944;DHT22;27636;52.610;13.244;2023-08-06T09:36:12;19.00;99.90
41944;DHT22;27636;52.610;13.244;2023-08-06T09:41:26;18.90;99.90
41944;DHT22;27636;52.610;13.244;2023-08-06T09:46:32;19.00;99.90
41944;DHT22;27636;52.610;13.244;2023-08-06T09:51:38;19.00;99.90
41944;DHT22;27636;52.610;13.244;2023-08-06T09:56:43;18.70;99.90
41944;DHT22;27636;52.610;13.244;2023-08-06T10:01:48;18.50;99.90
41944;DHT22;27636;52.610;13.244;2023-08-06T10:06:53;18.20;99.90
41944;DHT22;27636;52.610;13.244;2023-08-06T10:11:58;18.10;99.90
41944;DHT22;27636;52.610;13.244;2023-08-06T10:17:04;18.10;99.90
41944;DHT22;27636;52.610;13.244;2023-08-06T10:22:08;18.20;99.90
41944;DHT22;27636;52.610;13.244;2023-08-06T10:27:13;18.30;99.90
41944;DHT22;27636;52.610;13.244;2023-08-06T10:32:18;18.30;99.90
41944;DHT22;27636;52.610;13.244;2023-08-06T10:37:22;18.50;99.90
41944;DHT22;27636;52.610;13.244;2023-08-06T10:42:27;18.40;99.90
41944;DHT22;27636;52.610;13.244;2023-08-06T10:47:37;18.40;99.90
41944;DHT22;27636;52.610;13.244;2023-08-06T10:52:46;18.50;99.90
41944;DHT22;27636;52.610;13.244;2023-08-06T10:57:50;18.20;99.90
41944;DHT22;27636;52.610;13.244;2023-08-06T11:02:55;18.10;99.90
41944;DHT22;27636;52.610;13.244;2023-08-06T11:07:59;18.30;99.90
41944;DHT22;27636;52.610;13.244;2023-08-06T11:13:03;18.70;99.90
41944;DHT22;27636;52.610;13.244;2023-08-06T11:18:09;19.00;99.90
41944;DHT22;27636;52.610;13.244;2023-08-06T11:23:13;18.90;99.90
41944;DHT22;27636;52.610;13.244;2023-08-06T11:28:19;19.10;99.90
41944;DHT22;27636;52.610;13.244;2023-08-06T11:33:26;19.30;99.90
41944;DHT22;27636;52.610;13.244;2023-08-06T11:38:30;19.20;99.90
41944;DHT22;27636;52.610;13.244;2023-08-06T11:43:34;19.20;99.90
41944;DHT22;27636;52.610;13.244;2023-08-06T11:48:52;18.60;99.90
41944;DHT22;27636;52.610;13.244;2023-08-06T11:53:55;18.30;99.90
41944;DHT22;27636;52.610;13.244;2023-08-06T11:59:00;18.20;99.90
41944;DHT22;27636;52.610;13.244;2023-08-06T12:04:06;18.40;99.90
41944;DHT22;27636;52.610;13.244;2023-08-06T12:09:09;18.50;99.90
41944;DHT22;27636;52.610;13.244;2023-08-06T12:14:13;18.70;99.90
41944;DHT22;27636;52.610;13.244;2023-08-06T12:19:18;18.80;99.90
41944;DHT22;27636;52.610;13.244;2023-08-06T12:24:22;19.10;99.90
41944;DHT22;27636;52.610;13.244;2023-08-06T12:29:26;19.30;99.90
41944;DHT22;27636;52.610;13.244;2023-08-06T12:34:31;19.20;99.90
41944;DHT22;27636;52.610;13.244;2023-08-06T12:39:53;19.10;99.90
41944;DHT22;27636;52.610;13.244;2023-08-06T12:44:56;19.30;99.90
41944;DHT22;27636;52.610;13.244;2023-08-06T12:50:01;19.50;99.90
41944;DHT22;27636;52.610;13.244;2023-08-06T12:55:06;19.40;99.90
41944;DHT22;27636;52.610;13.244;2023-08-06T13:00:10;19.40;99.90
41944;DHT22;27636;52.610;13.244;2023-08-06T13:05:15;19.30;99.90
41944;DHT22;27636;52.610;13.244;2023-08-06T13:10:18;19.20;99.90
41944;DHT22;27636;52.610;13.244;2023-08-06T13:15:24;19.20;99.90
41944;DHT22;27636;52.610;13.244;2023-08-06T13:20:30;19.10;99.90
41944;DHT22;27636;52.610;13.244;2023-08-06T13:25:34;19.00;99.90
41944;DHT22;27636;52.610;13.244;2023-08-06T13:30:40;18.70;99.90
41944;DHT22;27636;52.610;13.244;2023-08-06T13:35:47;18.60;99.90
41944;DHT22;27636;52.610;13.244;2023-08-06T13:40:50;18.20;99.90
41944;DHT22;27636;52.610;13.244;2023-08-06T13:45:54;18.30;99.90
41944;DHT22;27636;52.610;13.244;2023-08-06T13:50:59;18.40;99.90
41944;DHT22;27636;52.610;13.244;2023-08-06T13:56:03;18.50;99.90
41944;DHT22;27636;52.610;13.244;2023-08-06T14:01:11;18.60;99.90
41944;DHT22;27636;52.610;13.244;2023-08-06T14:06:18;18.30;99.90
41944;DHT22;27636;52.610;13.244;2023-08-06T14:11:21;18.20;99.90
41944;DHT22;27636;52.610;13.244;2023-08-06T14:16:25;18.00;99.90
41944;DHT22;27636;52.610;13.244;2023-08-06T14:21:30;18.00;99.90
41944;DHT22;27636;52.610;13.244;2023-08-06T14:26:34;17.80;99.90
41944;DHT22;27636;52.610;13.244;2023-08-06T14:31:37;18.00;99.90
41944;DHT22;27636;52.610;13.244;2023-08-06T14:36:43;18.00;99.90
41944;DHT22;27636;52.610;13.244;2023-08-06T14:41:47;18.20;99.90
41944;DHT22;27636;52.610;13.244;2023-08-06T14:46:51;18.00;99.90
41944;DHT22;27636;52.610;13.244;2023-08-06T14:51:56;18.10;99.90
41944;DHT22;27636;52.610;13.244;2023-08-06T14:57:04;18.00;99.90
41944;DHT22;27636;52.610;13.244;2023-08-06T15:02:07;18.10;99.90
41944;DHT22;27636;52.610;13.244;2023-08-06T15:07:12;18.00;99.90
41944;DHT22;27636;52.610;13.244;2023-08-06T15:12:16;18.00;99.90
41944;DHT22;27636;52.610;13.244;2023-08-06T15:17:20;17.90;99.90
41944;DHT22;27636;52.610;13.244;2023-08-06T15:22:25;18.10;99.90
41944;DHT22;27636;52.610;13.244;2023-08-06T15:27:29;18.30;99.90
41944;DHT22;27636;52.610;13.244;2023-08-06T15:32:33;18.20;99.90
41944;DHT22;27636;52.610;13.244;2023-08-06T15:37:38;18.10;99.90
41944;DHT22;27636;52.610;13.244;2023-08-06T15:42:42;18.00;99.90
41944;DHT22;27636;52.610;13.244;2023-08-06T15:47:46;18.00;99.90
41944;DHT22;27636;52.610;13.244;2023-08-06T15:52:50;18.10;99.90
41944;DHT22;27636;52.610;13.244;2023-08-06T15:57:54;18.10;99.90
41944;DHT22;27636;52.610;13.244;2023-08-06T16:02:58;18.10;99.90
41944;DHT22;27636;52.610;13.244;2023-08-06T16:08:04;18.00;99.90
41944;DHT22;27636;52.610;13.244;2023-08-06T16:13:08;17.90;99.90
41944;DHT22;27636;52.610;13.244;2023-08-06T16:18:12;17.80;99.90
41944;DHT22;27636;52.610;13.244;2023-08-06T16:23:17;17.90;99.90
41944;DHT22;27636;52.610;13.244;2023-08-06T16:28:21;17.50;99.90
41944;DHT22;27636;52.610;13.244;2023-08-06T16:33:25;17.50;99.90
41944;DHT22;27636;52.610;13.244;2023-08-06T16:38:30;17.40;99.90
41944;DHT22;27636;52.610;13.244;2023-08-06T16:43:34;17.40;99.90
41944;DHT22;27636;52.610;13.244;2023-08-06T16:48:37;17.40;99.90
41944;DHT22;27636;52.610;13.244;2023-08-06T16:53:42;17.30;99.90
41944;DHT22;27636;52.610;13.244;2023-08-06T16:58:47;17.30;99.90
41944;DHT22;27636;52.610;13.244;2023-08-06T17:03:51;17.20;99.90
41944;DHT22;27636;52.610;13.244;2023-08-06T17:08:59;17.20;99.90
41944;DHT22;27636;52.610;13.244;2023-08-06T17:14:03;17.20;99.90
41944;DHT22;27636;52.610;13.244;2023-08-06T17:19:07;17.10;99.90
41944;DHT22;27636;52.610;13.244;2023-08-06T17:24:12;17.00;99.90
41944;DHT22;27636;52.610;13.244;2023-08-06T17:29:15;17.00;99.90
41944;DHT22;27636;52.610;13.244;2023-08-06T17:34:19;17.00;99.90
41944;DHT22;27636;52.610;13.244;2023-08-06T17:39:24;16.90;99.90
41944;DHT22;27636;52.610;13.244;2023-08-06T17:44:28;16.80;99.90
41944;DHT22;27636;52.610;13.244;2023-08-06T17:49:31;16.60;99.90
41944;DHT22;27636;52.610;13.244;2023-08-06T17:54:36;16.70;99.90
41944;DHT22;27636;52.610;13.244;2023-08-06T17:59:40;16.60;99.90
41944;DHT22;27636;52.610;13.244;2023-08-06T18:04:43;16.50;99.90
41944;DHT22;27636;52.610;13.244;2023-08-06T18:09:48;16.40;99.90
41944;DHT22;27636;52.610;13.244;2023-08-06T18:14:52;16.40;99.90
41944;DHT22;27636;52.610;13.244;2023-08-06T18:19:56;16.30;99.90
41944;DHT22;27636;52.610;13.244;2023-08-06T18:25:01;16.20;99.90
41944;DHT22;27636;52.610;13.244;2023-08-06T18:30:08;16.20;99.90
41944;DHT22;27636;52.610;13.244;2023-08-06T18:35:12;16.20;99.90
41944;DHT22;27636;52.610;13.244;2023-08-06T18:40:18;16.10;99.90
41944;DHT22;27636;52.610;13.244;2023-08-06T18:45:22;16.10;99.90
41944;DHT22;27636;52.610;13.244;2023-08-06T18:50:25;16.10;99.90
41944;DHT22;27636;52.610;13.244;2023-08-06T18:55:31;16.10;99.90
41944;DHT22;27636;52.610;13.244;2023-08-06T19:00:39;16.10;99.90
41944;DHT22;27636;52.610;13.244;2023-08-06T19:05:43;15.90;99.90
41944;DHT22;27636;52.610;13.244;2023-08-06T19:10:48;15.80;99.90
41944;DHT22;27636;52.610;13.244;2023-08-06T19:15:52;15.90;99.90
41944;DHT22;27636;52.610;13.244;2023-08-06T19:20:56;15.80;99.90
41944;DHT22;27636;52.610;13.244;2023-08-06T19:26:04;15.70;99.90
41944;DHT22;27636;52.610;13.244;2023-08-06T19:31:07;15.70;99.90
41944;DHT22;27636;52.610;13.244;2023-08-06T19:36:12;15.70;99.90
41944;DHT22;27636;52.610;13.244;2023-08-06T19:41:18;15.80;99.90
41944;DHT22;27636;52.610;13.244;2023-08-06T19:46:21;15.90;99.90
41944;DHT22;27636;52.610;13.244;2023-08-06T19:51:25;15.70;99.90
41944;DHT22;27636;52.610;13.244;2023-08-06T19:56:30;15.80;99.90
41944;DHT22;27636;52.610;13.244;2023-08-06T20:01:34;15.50;99.90
41944;DHT22;27636;52.610;13.244;2023-08-06T20:06:37;15.40;99.90
41944;DHT22;27636;52.610;13.244;2023-08-06T20:11:42;15.40;99.90
41944;DHT22;27636;52.610;13.244;2023-08-06T20:16:46;15.40;99.90
41944;DHT22;27636;52.610;13.244;2023-08-06T20:21:49;15.30;99.90
41944;DHT22;27636;52.610;13.244;2023-08-06T20:26:54;15.40;99.90
41944;DHT22;27636;52.610;13.244;2023-08-06T20:32:00;15.50;99.90
41944;DHT22;27636;52.610;13.244;2023-08-06T20:37:04;15.50;99.90
41944;DHT22;27636;52.610;13.244;2023-08-06T20:42:10;15.40;99.90
41944;DHT22;27636;52.610;13.244;2023-08-06T20:47:14;15.30;99.90
41944;DHT22;27636;52.610;13.244;2023-08-06T20:52:17;15.30;99.90
41944;DHT22;27636;52.610;13.244;2023-08-06T20:57:22;15.30;99.90
41944;DHT22;27636;52.610;13.244;2023-08-06T21:02:26;15.20;99.90
41944;DHT22;27636;52.610;13.244;2023-08-06T21:07:29;15.10;99.90
41944;DHT22;27636;52.610;13.244;2023-08-06T21:12:34;15.00;99.90
41944;DHT22;27636;52.610;13.244;2023-08-06T21:17:38;14.90;99.90
41944;DHT22;27636;52.610;13.244;2023-08-06T21:22:42;14.80;99.90
41944;DHT22;27636;52.610;13.244;2023-08-06T21:27:46;14.70;99.90
41944;DHT22;27636;52.610;13.244;2023-08-06T21:32:51;14.70;99.90
41944;DHT22;27636;52.610;13.244;2023-08-06T21:37:54;14.60;99.90
41944;DHT22;27636;52.610;13.244;2023-08-06T21:42:59;14.60;99.90
41944;DHT22;27636;52.610;13.244;2023-08-06T21:48:03;14.70;99.90
41944;DHT22;27636;52.610;13.244;2023-08-06T21:53:07;14.60;99.90
41944;DHT22;27636;52.610;13.244;2023-08-06T21:58:12;14.70;99.90
41944;DHT22;27636;52.610;13.244;2023-08-06T22:03:15;14.50;99.90
41944;DHT22;27636;52.610;13.244;2023-08-06T22:08:19;14.40;99.90
41944;DHT22;27636;52.610;13.244;2023-08-06T22:13:25;14.30;99.90
41944;DHT22;27636;52.610;13.244;2023-08-06T22:18:28;14.30;99.90
41944;DHT22;27636;52.610;13.244;2023-08-06T22:23:32;14.40;99.90
41944;DHT22;27636;52.610;13.244;2023-08-06T22:28:37;14.30;99.90
41944;DHT22;27636;52.610;13.244;2023-08-06T22:33:58;14.50;99.90
41944;DHT22;27636;52.610;13.244;2023-08-06T22:39:02;14.30;99.90
41944;DHT22;27636;52.610;13.244;2023-08-06T22:44:07;14.30;99.90
41944;DHT22;27636;52.610;13.244;2023-08-06T22:49:11;14.20;99.90
41944;DHT22;27636;52.610;13.244;2023-08-06T22:54:15;14.20;99.90
41944;DHT22;27636;52.610;13.244;2023-08-06T22:59:20;14.30;99.90
41944;DHT22;27636;52.610;13.244;2023-08-06T23:04:23;14.20;99.90
41944;DHT22;27636;52.610;13.244;2023-08-06T23:09:27;14.20;99.90
41944;DHT22;27636;52.610;13.244;2023-08-06T23:14:32;14.10;99.90
41944;DHT22;27636;52.610;13.244;2023-08-06T23:19:36;14.10;99.90
41944;DHT22;27636;52.610;13.244;2023-08-06T23:24:40;14.10;99.90
41944;DHT22;27636;52.610;13.244;2023-08-06T23:29:44;14.10;99.90
41944;DHT22;27636;52.610;13.244;2023-08-06T23:34:49;14.10;99.90
41944;DHT22;27636;52.610;13.244;2023-08-06T23:39:57;14.00;99.90
41944;DHT22;27636;52.610;13.244;2023-08-06T23:45:03;14.10;99.90
41944;DHT22;27636;52.610;13.244;2023-08-06T23:50:08;14.10;99.90
41944;DHT22;27636;52.610;13.244;2023-08-06T23:55:12;14.10;99.90
